createdAt,value
2023-01-27T00:01:23.680Z,66.89
2023-01-27T00:03:51.268Z,67.04
2023-01-27T00:06:18.245Z,67.33
2023-01-27T00:08:45.254Z,67.14
2023-01-27T00:11:30.727Z,67.34
2023-01-27T00:13:57.726Z,66.95
2023-01-27T00:16:24.785Z,65.45
2023-01-27T00:18:51.779Z,65.15
2023-01-27T00:21:37.704Z,66.20
2023-01-27T00:24:23.521Z,66.91
2023-01-27T00:26:50.565Z,66.58
2023-01-27T00:29:17.556Z,66.68
2023-01-27T00:32:03.395Z,66.91
2023-01-27T00:34:30.391Z,66.71
2023-01-27T00:36:57.469Z,66.54
2023-01-27T00:39:24.435Z,66.65
2023-01-27T00:41:51.548Z,66.75
2023-01-27T00:44:18.599Z,66.89
2023-01-27T00:46:45.576Z,66.84
2023-01-27T00:49:13.515Z,66.94
2023-01-27T00:51:40.756Z,66.72
2023-01-27T00:54:08.007Z,66.68
2023-01-27T00:56:36.017Z,66.59
2023-01-27T00:59:03.776Z,66.86
2023-01-27T01:01:31.098Z,67.21
2023-01-27T01:04:01.277Z,67.29
2023-01-27T01:06:28.482Z,66.87
2023-01-27T01:08:57.934Z,67.13
2023-01-27T01:11:25.121Z,66.97
2023-01-27T01:13:54.826Z,66.79
2023-01-27T01:16:24.987Z,67.31
2023-01-27T01:18:52.071Z,66.70
2023-01-27T01:21:19.060Z,66.16
2023-01-27T01:23:46.817Z,66.11
2023-01-27T01:26:16.724Z,67.03
2023-01-27T01:28:45.976Z,67.39
2023-01-27T01:31:17.478Z,67.44
2023-01-27T01:33:44.784Z,66.88
2023-01-27T01:36:21.766Z,67.16
2023-01-27T01:38:49.207Z,68.35
2023-01-27T01:41:20.620Z,68.39
2023-01-27T01:43:49.452Z,68.97
2023-01-27T01:46:16.908Z,68.35
2023-01-27T01:48:54.828Z,69.13
2023-01-27T01:51:52.344Z,69.29
2023-01-27T01:54:38.870Z,69.56
2023-01-27T01:57:12.615Z,69.60
2023-01-27T01:59:48.843Z,69.60
2023-01-27T02:02:22.247Z,70.45
2023-01-27T02:05:00.651Z,70.45
2023-01-27T02:07:47.806Z,70.45
2023-01-27T02:10:15.423Z,70.35
2023-01-27T02:12:42.510Z,69.41
2023-01-27T02:15:11.813Z,69.39
2023-01-27T02:17:39.158Z,70.19
2023-01-27T02:20:36.477Z,70.69
2023-01-27T02:23:18.200Z,70.61
2023-01-27T02:26:35.959Z,70.40
2023-01-27T02:29:13.522Z,70.11
2023-01-27T02:31:41.266Z,69.84
2023-01-27T02:34:18.093Z,69.91
2023-01-27T02:36:55.234Z,70.24
2023-01-27T02:39:29.735Z,69.85
2023-01-27T02:41:58.690Z,69.41
2023-01-27T02:44:25.764Z,69.81
2023-01-27T02:46:52.830Z,69.89
2023-01-27T02:49:19.837Z,70.03
2023-01-27T02:51:46.835Z,70.20
2023-01-27T02:54:13.937Z,70.01
2023-01-27T02:56:40.937Z,70.30
2023-01-27T02:59:07.971Z,70.00
2023-01-27T03:01:35.002Z,69.99
2023-01-27T03:04:02.441Z,69.35
2023-01-27T03:06:29.446Z,68.66
2023-01-27T03:08:56.518Z,67.85
2023-01-27T03:11:42.256Z,67.94
2023-01-27T03:14:09.956Z,67.98
2023-01-27T03:16:55.410Z,67.62
2023-01-27T03:19:22.394Z,66.91
2023-01-27T03:21:52.816Z,67.30
2023-01-27T03:24:20.723Z,67.35
2023-01-27T03:26:48.043Z,66.88
2023-01-27T03:29:34.135Z,65.81
2023-01-27T03:32:01.135Z,65.70
2023-01-27T03:34:28.116Z,65.56
2023-01-27T03:37:13.696Z,65.87
2023-01-27T03:39:59.428Z,65.50
2023-01-27T03:42:45.190Z,65.29
2023-01-27T03:45:30.841Z,65.08
2023-01-27T03:47:57.820Z,64.61
2023-01-27T03:50:37.775Z,64.69
2023-01-27T03:53:05.886Z,64.79
2023-01-27T03:55:35.605Z,65.69
2023-01-27T03:58:18.361Z,66.47
2023-01-27T04:00:51.616Z,66.44
2023-01-27T04:03:38.502Z,66.29
2023-01-27T04:06:31.384Z,66.02
2023-01-27T04:08:59.296Z,65.66
2023-01-27T04:11:45.331Z,66.34
2023-01-27T04:14:13.797Z,66.33
2023-01-27T04:16:40.792Z,66.07
2023-01-27T04:19:10.558Z,65.54
2023-01-27T04:21:37.969Z,65.78
2023-01-27T04:24:08.815Z,65.75
2023-01-27T04:26:36.052Z,66.18
2023-01-27T04:29:04.231Z,66.49
2023-01-27T04:31:32.736Z,66.73
2023-01-27T04:33:59.974Z,66.54
2023-01-27T04:36:27.003Z,67.06
2023-01-27T04:38:54.001Z,67.17
2023-01-27T04:41:20.967Z,66.73
2023-01-27T04:43:48.218Z,66.53
2023-01-27T04:46:15.256Z,66.51
2023-01-27T04:48:42.290Z,65.84
2023-01-27T04:51:09.338Z,65.67
2023-01-27T04:53:36.436Z,66.64
2023-01-27T04:56:22.639Z,66.94
2023-01-27T04:58:49.943Z,66.45
2023-01-27T05:01:17.039Z,66.82
2023-01-27T05:03:44.310Z,67.34
2023-01-27T05:06:12.156Z,67.43
2023-01-27T05:08:39.491Z,67.60
2023-01-27T05:11:07.148Z,67.98
2023-01-27T05:13:34.405Z,68.31
2023-01-27T05:16:17.613Z,68.57
2023-01-27T05:18:48.643Z,68.72
2023-01-27T05:21:19.799Z,68.99
2023-01-27T05:23:47.679Z,68.64
2023-01-27T05:26:18.606Z,68.78
2023-01-27T05:28:47.597Z,67.97
2023-01-27T05:31:22.233Z,67.85
2023-01-27T05:33:54.954Z,68.10
2023-01-27T05:36:24.831Z,69.10
2023-01-27T05:38:53.191Z,69.38
2023-01-27T05:41:20.997Z,69.57
2023-01-27T05:43:53.865Z,68.84
2023-01-27T05:46:27.831Z,69.31
2023-01-27T05:48:58.933Z,69.92
2023-01-27T05:51:30.207Z,70.10
2023-01-27T05:53:57.531Z,69.76
2023-01-27T05:56:26.530Z,69.59
2023-01-27T05:58:58.354Z,69.86
2023-01-27T06:01:34.555Z,70.20
2023-01-27T06:04:02.015Z,70.38
2023-01-27T06:06:31.641Z,70.10
2023-01-27T06:09:00.172Z,70.16
2023-01-27T06:11:27.714Z,70.06
2023-01-27T06:13:54.965Z,70.45
2023-01-27T06:16:23.159Z,70.49
2023-01-27T06:18:50.295Z,70.73
2023-01-27T06:21:18.333Z,70.69
2023-01-27T06:23:45.305Z,70.85
2023-01-27T06:26:19.320Z,70.83
2023-01-27T06:28:47.230Z,70.81
2023-01-27T06:31:21.987Z,71.57
2023-01-27T06:33:50.814Z,70.83
2023-01-27T06:36:22.094Z,71.03
2023-01-27T06:38:50.182Z,71.51
2023-01-27T06:41:17.564Z,71.83
2023-01-27T06:43:44.629Z,72.35
2023-01-27T06:46:12.281Z,72.47
2023-01-27T06:48:39.396Z,73.01
2023-01-27T06:51:07.015Z,74.07
2023-01-27T06:53:34.926Z,73.45
2023-01-27T06:56:02.350Z,72.68
2023-01-27T06:58:29.694Z,72.82
2023-01-27T07:00:57.086Z,72.62
2023-01-27T07:03:24.635Z,72.81
2023-01-27T07:05:53.046Z,72.96
2023-01-27T07:08:20.135Z,73.11
2023-01-27T07:10:47.139Z,73.99
2023-01-27T07:13:15.358Z,73.81
2023-01-27T07:15:42.601Z,73.45
2023-01-27T07:18:14.355Z,73.58
2023-01-27T07:20:42.380Z,73.02
2023-01-27T07:23:10.147Z,73.07
2023-01-27T07:25:37.486Z,73.48
2023-01-27T07:28:05.463Z,73.55
2023-01-27T07:30:36.164Z,73.00
2023-01-27T07:33:08.806Z,71.96
2023-01-27T07:35:38.202Z,72.54
2023-01-27T07:38:06.905Z,72.88
2023-01-27T07:40:35.053Z,72.54
2023-01-27T07:43:03.526Z,72.45
2023-01-27T07:45:31.253Z,71.78
2023-01-27T07:48:03.980Z,70.95
2023-01-27T07:50:31.467Z,70.42
2023-01-27T07:53:05.695Z,70.15
2023-01-27T07:55:33.810Z,70.10
2023-01-27T07:58:01.179Z,70.06
2023-01-27T08:00:29.099Z,69.60
2023-01-27T08:02:57.665Z,69.24
2023-01-27T08:05:26.278Z,68.38
2023-01-27T08:07:57.646Z,68.50
2023-01-27T08:10:25.664Z,68.07
2023-01-27T08:12:52.813Z,67.69
2023-01-27T08:15:19.904Z,67.58
2023-01-27T08:17:58.097Z,67.45
2023-01-27T08:20:27.928Z,67.20
2023-01-27T08:22:55.292Z,67.10
2023-01-27T08:25:23.013Z,67.47
2023-01-27T08:27:52.905Z,67.55
2023-01-27T08:30:20.294Z,66.84
2023-01-27T08:32:47.936Z,66.89
2023-01-27T08:35:15.142Z,67.04
2023-01-27T08:37:42.219Z,66.79
2023-01-27T08:40:10.516Z,66.46
2023-01-27T08:42:37.742Z,66.53
2023-01-27T08:45:05.320Z,66.34
2023-01-27T08:47:32.359Z,65.97
2023-01-27T08:49:59.604Z,65.24
2023-01-27T08:52:27.724Z,64.79
2023-01-27T08:54:54.771Z,65.03
2023-01-27T08:57:21.786Z,65.16
2023-01-27T08:59:48.779Z,65.12
2023-01-27T09:02:15.772Z,64.87
2023-01-27T09:04:45.249Z,63.76
2023-01-27T09:07:12.399Z,63.07
2023-01-27T09:09:39.479Z,62.19
2023-01-27T09:12:06.675Z,62.35
2023-01-27T09:14:34.407Z,61.80
2023-01-27T09:17:01.370Z,61.53
2023-01-27T09:19:28.420Z,61.05
2023-01-27T09:21:55.470Z,60.14
2023-01-27T09:24:22.641Z,59.80
2023-01-27T09:26:49.864Z,59.72
2023-01-27T09:29:16.944Z,59.39
2023-01-27T09:31:44.041Z,59.63
2023-01-27T09:34:11.163Z,59.79
2023-01-27T09:36:45.319Z,59.24
2023-01-27T09:39:13.148Z,58.84
2023-01-27T09:42:01.541Z,58.83
2023-01-27T09:44:42.092Z,58.74
2023-01-27T09:47:41.485Z,58.66
2023-01-27T09:50:48.771Z,59.08
2023-01-27T09:53:47.450Z,58.71
2023-01-27T09:56:38.916Z,57.90
2023-01-27T09:59:35.397Z,57.82
2023-01-27T10:02:28.800Z,58.07
2023-01-27T10:05:27.249Z,58.76
2023-01-27T10:08:47.341Z,57.50
2023-01-27T10:11:42.496Z,58.35
2023-01-27T10:14:24.340Z,58.05
2023-01-27T10:17:38.572Z,58.79
2023-01-27T10:20:23.944Z,58.18
2023-01-27T10:23:35.184Z,57.99
2023-01-27T10:26:36.236Z,57.83
2023-01-27T10:29:16.567Z,58.02
2023-01-27T10:32:08.979Z,58.11
2023-01-27T10:35:11.689Z,58.45
2023-01-27T10:38:19.980Z,58.44
2023-01-27T10:41:01.815Z,58.49
2023-01-27T10:44:35.807Z,58.52
2023-01-27T10:47:03.135Z,58.46
2023-01-27T10:50:00.112Z,58.04
2023-01-27T10:53:04.190Z,58.61
2023-01-27T10:55:53.079Z,59.10
2023-01-27T10:58:55.897Z,58.89
2023-01-27T11:01:43.318Z,59.18
2023-01-27T11:04:46.865Z,59.54
2023-01-27T11:07:20.528Z,59.63
2023-01-27T11:10:02.275Z,59.77
2023-01-27T11:12:38.973Z,60.10
2023-01-27T11:15:33.765Z,60.34
2023-01-27T11:18:25.528Z,61.79
2023-01-27T11:21:09.790Z,62.10
2023-01-27T11:23:49.104Z,61.79
2023-01-27T11:26:39.553Z,61.70
2023-01-27T11:29:36.258Z,61.61
2023-01-27T11:32:21.181Z,61.66
2023-01-27T11:35:12.583Z,61.22
2023-01-27T11:37:47.538Z,61.58
2023-01-27T11:40:23.238Z,61.34
2023-01-27T11:42:51.888Z,60.53
2023-01-27T11:45:21.308Z,60.91
2023-01-27T11:47:55.618Z,60.70
2023-01-27T11:50:26.257Z,60.70
2023-01-27T11:53:32.200Z,60.77
2023-01-27T11:56:08.509Z,61.11
2023-01-27T11:59:05.484Z,61.42
2023-01-27T12:01:59.895Z,61.02
2023-01-27T12:04:39.212Z,61.25
2023-01-27T12:07:31.967Z,61.36
2023-01-27T12:09:58.958Z,61.23
2023-01-27T12:12:27.971Z,61.46
2023-01-27T12:15:00.525Z,61.91
2023-01-27T12:17:43.309Z,61.74
2023-01-27T12:20:22.257Z,62.08
2023-01-27T12:22:59.654Z,62.57
2023-01-27T12:25:31.758Z,62.62
2023-01-27T12:28:02.810Z,62.86
2023-01-27T12:30:37.267Z,62.75
2023-01-27T12:33:30.015Z,63.10
2023-01-27T12:36:03.660Z,63.28
2023-01-27T12:38:35.856Z,63.46
2023-01-27T12:41:08.400Z,63.93
2023-01-27T12:43:54.796Z,64.18
2023-01-27T12:46:24.864Z,64.33
2023-01-27T12:49:00.118Z,64.34
2023-01-27T12:51:48.380Z,64.08
2023-01-27T12:54:34.842Z,64.63
2023-01-27T12:57:14.303Z,65.18
2023-01-27T12:59:54.928Z,66.10
2023-01-27T13:02:31.107Z,66.49
2023-01-27T13:05:05.870Z,66.56
2023-01-27T13:07:46.971Z,66.75
2023-01-27T13:10:23.792Z,67.05
2023-01-27T13:12:57.531Z,67.21
2023-01-27T13:15:28.990Z,67.66
2023-01-27T13:17:58.995Z,67.95
2023-01-27T13:20:32.183Z,68.47
2023-01-27T13:23:19.567Z,68.66
2023-01-27T13:26:04.584Z,69.16
2023-01-27T13:28:52.120Z,68.82
2023-01-27T13:31:56.907Z,69.18
2023-01-27T13:34:53.477Z,69.38
2023-01-27T13:37:42.099Z,69.06
2023-01-27T13:40:27.754Z,69.27
2023-01-27T13:43:23.557Z,69.68
2023-01-27T13:46:22.020Z,69.68
2023-01-27T13:48:59.755Z,70.05
2023-01-27T13:51:31.162Z,70.41
2023-01-27T13:54:02.596Z,70.23
2023-01-27T13:56:57.446Z,70.00
2023-01-27T13:59:49.492Z,69.92
2023-01-27T14:03:04.114Z,70.33
2023-01-27T14:05:56.830Z,70.79
2023-01-27T14:09:03.259Z,70.62
2023-01-27T14:11:44.584Z,70.00
2023-01-27T14:14:37.264Z,70.80
2023-01-27T14:17:26.665Z,70.73
2023-01-27T14:20:05.266Z,71.19
2023-01-27T14:22:47.010Z,71.01
2023-01-27T14:25:39.125Z,71.07
2023-01-27T14:28:22.290Z,72.43
2023-01-27T14:31:11.389Z,72.06
2023-01-27T14:34:01.716Z,71.75
2023-01-27T14:36:53.814Z,74.77
2023-01-27T14:39:37.312Z,76.04
2023-01-27T14:42:14.267Z,75.43
2023-01-27T14:45:30.500Z,75.58
2023-01-27T14:48:27.915Z,74.96
2023-01-27T14:51:37.743Z,76.08
2023-01-27T14:54:44.948Z,78.07
2023-01-27T14:57:55.824Z,78.14
2023-01-27T15:01:10.393Z,79.27
2023-01-27T15:04:00.797Z,79.88
2023-01-27T15:06:45.276Z,80.28
2023-01-27T15:09:34.598Z,80.53
2023-01-27T15:12:26.505Z,79.82
2023-01-27T15:15:32.283Z,79.87
2023-01-27T15:18:26.348Z,79.93
2023-01-27T15:21:33.715Z,79.87
2023-01-27T15:24:38.629Z,79.38
2023-01-27T15:27:08.056Z,79.00
2023-01-27T15:29:35.262Z,79.54
2023-01-27T15:32:14.085Z,78.98
2023-01-27T15:34:44.397Z,78.81
2023-01-27T15:37:20.242Z,78.66
2023-01-27T15:40:17.013Z,78.80
2023-01-27T15:43:05.154Z,79.25
2023-01-27T15:45:43.704Z,79.30
2023-01-27T15:48:12.869Z,79.03
2023-01-27T15:50:53.940Z,79.10
2023-01-27T15:53:32.338Z,79.13
2023-01-27T15:56:01.901Z,79.08
2023-01-27T15:59:03.507Z,78.71
2023-01-27T16:01:34.593Z,78.72
2023-01-27T16:04:21.799Z,78.47
2023-01-27T16:06:51.749Z,79.15
2023-01-27T16:09:45.585Z,80.84
2023-01-27T16:12:27.426Z,80.77
2023-01-27T16:15:19.206Z,80.83
2023-01-27T16:18:07.374Z,82.84
2023-01-27T16:21:06.853Z,83.81
2023-01-27T16:23:48.875Z,84.15
2023-01-27T16:26:59.823Z,84.13
2023-01-27T16:29:48.820Z,84.22
2023-01-27T16:32:22.438Z,84.09
2023-01-27T16:34:58.170Z,83.20
2023-01-27T16:37:36.739Z,84.10
2023-01-27T16:40:22.985Z,84.06
2023-01-27T16:42:52.993Z,83.43
2023-01-27T16:45:29.119Z,84.54
2023-01-27T16:48:06.733Z,86.27
2023-01-27T16:50:36.409Z,85.90
2023-01-27T16:53:08.302Z,85.60
2023-01-27T16:55:35.465Z,86.97
2023-01-27T16:58:03.199Z,86.61
2023-01-27T17:00:36.420Z,86.53
2023-01-27T17:03:15.249Z,86.02
2023-01-27T17:05:43.857Z,85.45
2023-01-27T17:08:27.934Z,84.91
2023-01-27T17:11:04.845Z,84.40
2023-01-27T17:13:46.419Z,84.73
2023-01-27T17:16:29.836Z,85.43
2023-01-27T17:19:07.912Z,84.92
2023-01-27T17:21:41.520Z,85.91
2023-01-27T17:24:32.914Z,86.77
2023-01-27T17:27:21.508Z,87.74
2023-01-27T17:29:51.845Z,87.83
2023-01-27T17:32:41.997Z,87.95
2023-01-27T17:35:25.560Z,87.99
2023-01-27T17:37:53.177Z,88.05
2023-01-27T17:40:23.052Z,88.01
2023-01-27T17:42:50.526Z,88.28
2023-01-27T17:45:32.177Z,87.92
2023-01-27T17:48:01.085Z,88.05
2023-01-27T17:50:37.364Z,88.03
2023-01-27T17:53:12.357Z,87.62
2023-01-27T17:55:40.235Z,87.18
2023-01-27T17:58:17.061Z,87.37
2023-01-27T18:00:46.205Z,86.85
2023-01-27T18:03:36.051Z,86.49
2023-01-27T18:06:06.514Z,86.21
2023-01-27T18:08:35.457Z,86.66
2023-01-27T18:11:31.383Z,85.83
2023-01-27T18:14:14.212Z,86.18
2023-01-27T18:16:41.293Z,86.69
2023-01-27T18:19:23.708Z,86.46
2023-01-27T18:22:11.159Z,86.53
2023-01-27T18:24:40.396Z,86.24
2023-01-27T18:27:22.953Z,85.87
2023-01-27T18:29:56.117Z,86.21
2023-01-27T18:32:24.769Z,86.57
2023-01-27T18:34:56.389Z,86.41
2023-01-27T18:37:34.385Z,86.74
2023-01-27T18:40:21.489Z,86.58
2023-01-27T18:42:53.992Z,86.33
2023-01-27T18:45:21.310Z,85.78
2023-01-27T18:47:48.384Z,86.08
2023-01-27T18:50:18.215Z,85.87
2023-01-27T18:52:46.294Z,86.10
2023-01-27T18:55:29.523Z,86.13
2023-01-27T18:58:00.063Z,86.46
2023-01-27T19:00:42.319Z,86.85
2023-01-27T19:03:19.619Z,86.32
2023-01-27T19:05:48.668Z,86.27
2023-01-27T19:08:22.170Z,85.83
2023-01-27T19:10:50.345Z,86.55
2023-01-27T19:13:18.092Z,87.19
2023-01-27T19:15:53.610Z,86.86
2023-01-27T19:18:38.291Z,86.55
2023-01-27T19:21:05.908Z,86.40
2023-01-27T19:23:33.024Z,87.21
2023-01-27T19:26:03.408Z,87.41
2023-01-27T19:28:38.663Z,87.19
2023-01-27T19:31:07.509Z,87.45
2023-01-27T19:33:37.266Z,86.93
2023-01-27T19:36:24.162Z,86.91
2023-01-27T19:39:22.418Z,87.36
2023-01-27T19:41:49.459Z,87.33
2023-01-27T19:44:16.881Z,87.05
2023-01-27T19:46:44.159Z,87.50
2023-01-27T19:49:19.418Z,87.21
2023-01-27T19:51:46.787Z,87.36
2023-01-27T19:54:13.905Z,87.91
2023-01-27T19:56:40.941Z,87.79
2023-01-27T19:59:09.500Z,88.07
2023-01-27T20:01:36.653Z,88.52
2023-01-27T20:04:03.747Z,88.71
2023-01-27T20:06:31.922Z,89.76
2023-01-27T20:09:03.297Z,89.73
2023-01-27T20:11:38.053Z,89.78
2023-01-27T20:14:13.720Z,89.81
2023-01-27T20:16:42.002Z,89.67
2023-01-27T20:19:09.218Z,89.32
2023-01-27T20:21:36.261Z,88.87
2023-01-27T20:24:03.648Z,88.61
2023-01-27T20:26:31.340Z,88.58
2023-01-27T20:28:59.197Z,88.12
2023-01-27T20:31:26.899Z,88.37
2023-01-27T20:33:53.965Z,88.66
2023-01-27T20:36:23.705Z,89.03
2023-01-27T20:38:51.802Z,88.75
2023-01-27T20:41:22.329Z,88.63
2023-01-27T20:43:54.108Z,88.75
2023-01-27T20:46:21.123Z,89.47
2023-01-27T20:48:48.236Z,89.98
2023-01-27T20:51:16.478Z,89.74
2023-01-27T20:53:47.876Z,90.49
2023-01-27T20:56:21.396Z,91.57
2023-01-27T20:58:49.178Z,91.30
2023-01-27T21:01:23.416Z,92.15
2023-01-27T21:03:50.899Z,92.56
2023-01-27T21:06:21.581Z,92.24
2023-01-27T21:08:49.585Z,92.04
2023-01-27T21:11:20.089Z,91.43
2023-01-27T21:13:48.716Z,91.06
2023-01-27T21:16:16.057Z,90.72
2023-01-27T21:18:44.255Z,91.02
2023-01-27T21:21:28.027Z,92.00
2023-01-27T21:23:56.142Z,92.13
2023-01-27T21:26:23.776Z,91.47
2023-01-27T21:28:50.937Z,91.83
2023-01-27T21:31:21.783Z,91.57
2023-01-27T21:33:50.198Z,91.17
2023-01-27T21:36:19.333Z,90.34
2023-01-27T21:38:47.247Z,90.60
2023-01-27T21:41:46.127Z,91.37
2023-01-27T21:44:40.414Z,91.29
2023-01-27T21:47:10.481Z,91.48
2023-01-27T21:49:58.333Z,92.10
2023-01-27T21:52:37.578Z,92.28
2023-01-27T21:55:08.284Z,92.46
2023-01-27T21:57:36.259Z,92.11
2023-01-27T22:00:06.658Z,91.66
2023-01-27T22:02:33.723Z,91.05
2023-01-27T22:05:00.757Z,91.25
2023-01-27T22:07:30.446Z,91.52
2023-01-27T22:09:57.434Z,91.65
2023-01-27T22:12:24.404Z,91.61
2023-01-27T22:14:51.410Z,91.17
2023-01-27T22:17:19.961Z,91.27
2023-01-27T22:19:47.165Z,91.33
2023-01-27T22:22:14.517Z,91.04
2023-01-27T22:24:41.787Z,91.16
2023-01-27T22:27:08.769Z,90.84
2023-01-27T22:29:35.820Z,90.15
2023-01-27T22:32:03.310Z,90.30
2023-01-27T22:34:30.322Z,89.83
2023-01-27T22:36:57.323Z,89.79
2023-01-27T22:39:24.573Z,89.48
2023-01-27T22:41:51.672Z,89.77
2023-01-27T22:44:18.948Z,89.61
2023-01-27T22:46:49.051Z,90.03
2023-01-27T22:49:16.468Z,90.35
2023-01-27T22:51:43.498Z,91.86
2023-01-27T22:54:10.763Z,91.92
2023-01-27T22:56:37.845Z,92.23
2023-01-27T22:59:05.180Z,93.71
2023-01-27T23:01:32.478Z,93.69
2023-01-27T23:03:59.601Z,93.40
2023-01-27T23:06:26.623Z,92.63
2023-01-27T23:08:53.681Z,91.74
2023-01-27T23:11:20.666Z,91.94
2023-01-27T23:13:47.897Z,92.01
2023-01-27T23:16:15.072Z,92.26
2023-01-27T23:18:42.096Z,92.03
2023-01-27T23:21:09.254Z,91.70
2023-01-27T23:23:36.657Z,91.83
2023-01-27T23:26:07.964Z,92.10
2023-01-27T23:28:37.794Z,92.62
2023-01-27T23:31:09.832Z,92.66
2023-01-27T23:33:39.101Z,92.52
2023-01-27T23:36:08.271Z,91.84
2023-01-27T23:38:36.658Z,91.89
2023-01-27T23:41:13.591Z,91.93
2023-01-27T23:43:40.748Z,92.16
2023-01-27T23:46:07.775Z,92.03
2023-01-27T23:48:34.806Z,91.91
2023-01-27T23:51:08.348Z,91.74
2023-01-27T23:53:35.526Z,91.93
2023-01-27T23:56:02.700Z,91.35
2023-01-27T23:58:29.729Z,91.24
